Main page
METAR-TAF:

METAR-TAF

Airports :

Martín Miguel de Güemes International Airport

Salta, Argentina

latitude: 24-51S, longitude: 065-29W, elevation: 1238 m

Current weather observation

The report was made 56 minutes ago, at 23:00 UTC
Wind 5 kt from the North/Northwest
Temperature 4°C
Humidity 60%
Pressure 1030 hPa
Visibility 10 km or more
Broken clouds at a height of 4500 ft

METAR: SASA 122300Z 33005KT 9999 BKN045 04/M03 Q1030

Time: 20:56 (23:56 UTC)

Forecast

The report was made 56 minutes ago, at 23:00 UTC
Forecast valid from 13 at 00 UTC to 13 at 24 UTC
Wind 2 kt from variable directions
Visibility 10 km or more
Broken clouds at a height of 4000 ft
Becoming
from 13 at 14 UTC to 13 at 17 UTC
Wind 10 kt from the Northeast
Visibility 10 km or more
no clouds below 1500 m and no cumulonimbus

TAF: SASA 122300Z 1300/1324 VRB02KT 9999 BKN040 TX12/1318Z TNM02/1311Z BECMG 1314/1317 05010KT CAVOK

Weather observations and forecasts of more than 4000 airports (METAR and TAF reports).

The available stations are represented by yellow and red dots on the map.

Hover mouse over dot to see the name of the station.

Then click to see weather observations and forecasts.

To change the map : click on the green buttons with a black cross to zoom in, on the green button with a dash to zoom out, or on the green arrows for adjacent maps.


METAR-TAF: